createdAt,value
2023-05-02T00:12:41.952Z,46.19
2023-05-02T00:27:44.181Z,46.09
2023-05-02T00:42:45.854Z,46.16
2023-05-02T00:57:47.919Z,46.00
2023-05-02T01:12:55.474Z,46.31
2023-05-02T01:28:06.336Z,46.29
2023-05-02T01:43:09.436Z,46.18
2023-05-02T01:58:12.716Z,46.07
2023-05-02T02:13:26.150Z,46.46
2023-05-02T02:28:28.184Z,46.33
2023-05-02T02:43:41.175Z,46.25
2023-05-02T02:59:09.168Z,46.13
2023-05-02T03:14:11.051Z,46.10
2023-05-02T03:29:12.724Z,46.22
2023-05-02T03:44:14.378Z,46.41
2023-05-02T03:59:16.151Z,46.21
2023-05-02T04:14:18.507Z,46.10
2023-05-02T04:29:20.174Z,46.15
2023-05-02T04:44:21.811Z,46.29
2023-05-02T04:59:23.470Z,45.96
2023-05-02T05:14:25.169Z,46.39
2023-05-02T05:29:26.837Z,45.96
2023-05-02T05:44:28.560Z,46.13
2023-05-02T05:59:30.221Z,46.21
2023-05-02T06:14:31.875Z,45.70
2023-05-02T06:29:33.840Z,46.34
2023-05-02T06:44:35.606Z,45.98
2023-05-02T06:59:37.338Z,46.12
2023-05-02T07:14:39.006Z,46.26
2023-05-02T07:29:40.768Z,45.97
2023-05-02T07:44:42.466Z,45.89
2023-05-02T07:59:44.268Z,45.96
2023-05-02T08:14:45.968Z,45.78
2023-05-02T08:29:47.766Z,45.65
2023-05-02T08:44:49.925Z,45.52
2023-05-02T08:59:51.987Z,45.68
2023-05-02T09:15:12.774Z,45.44
2023-05-02T09:30:26.783Z,46.11
2023-05-02T09:45:28.573Z,45.70
2023-05-02T10:00:44.475Z,46.07
2023-05-02T10:15:49.379Z,45.80
2023-05-02T10:30:52.006Z,45.57
2023-05-02T10:45:54.291Z,45.89
2023-05-02T11:01:30.840Z,45.32
2023-05-02T11:17:03.653Z,45.36
2023-05-02T11:32:05.537Z,45.71
2023-05-02T11:47:08.053Z,45.52
2023-05-02T12:02:09.718Z,45.70
2023-05-02T12:17:11.576Z,45.39
2023-05-02T12:32:14.586Z,45.67
2023-05-02T12:47:17.223Z,45.56
2023-05-02T13:02:19.316Z,45.31
2023-05-02T13:17:21.070Z,45.22
2023-05-02T13:32:23.089Z,45.34
2023-05-02T13:47:24.801Z,45.38
2023-05-02T14:02:26.580Z,45.40
2023-05-02T14:17:28.362Z,45.40
2023-05-02T14:32:30.262Z,45.22
2023-05-02T14:47:32.122Z,45.33
2023-05-02T15:02:34.945Z,45.59
2023-05-02T15:17:36.675Z,45.27
2023-05-02T15:32:38.421Z,45.41
2023-05-02T15:47:40.620Z,45.59
2023-05-02T16:02:42.863Z,45.28
2023-05-02T16:17:44.949Z,45.66
2023-05-02T16:32:46.709Z,45.69
2023-05-02T16:47:48.480Z,45.22
2023-05-02T17:02:50.350Z,45.39
2023-05-02T17:17:52.457Z,45.51
2023-05-02T17:32:54.262Z,45.61
2023-05-02T17:47:56.181Z,45.73
2023-05-02T18:02:58.047Z,45.67
2023-05-02T18:17:59.731Z,45.59
2023-05-02T18:33:01.552Z,45.76
2023-05-02T18:48:03.666Z,45.79
2023-05-02T19:03:05.554Z,45.64
2023-05-02T19:18:07.355Z,45.53
2023-05-02T19:33:09.225Z,45.48
2023-05-02T19:48:12.155Z,45.65
2023-05-02T20:03:14.661Z,45.47
2023-05-02T20:18:16.536Z,45.44
2023-05-02T20:33:18.411Z,45.61
2023-05-02T20:48:20.267Z,45.38
2023-05-02T21:03:22.233Z,45.50
2023-05-02T21:18:23.969Z,45.46
2023-05-02T21:33:25.624Z,45.64
2023-05-02T21:48:27.609Z,45.76
2023-05-02T22:03:29.303Z,45.40
2023-05-02T22:18:31.293Z,45.81
2023-05-02T22:33:33.112Z,45.36
2023-05-02T22:48:34.805Z,45.40
2023-05-02T23:03:36.612Z,45.61
2023-05-02T23:18:38.843Z,45.60
2023-05-02T23:33:40.531Z,45.37
2023-05-02T23:48:42.242Z,45.55
